Time;durP1;ratioP1;P1;durP2;ratioP2;P2;SDS_P1;SDS_P2;PMS_P1;PMS_P2;Temp;Humidity;BMP_temperature;BMP_pressure;BME280_temperature;BME280_humidity;BME280_pressure;Samples;Min_cycle;Max_cycle;Signal;HPM_P1;HPM_P2
2020/12/12 00:01:18;;;;;;;1.40;0.80;;;4.30;99.90;;;;;;5074496;28;20835;-56
2020/12/12 00:03:44;;;;;;;1.50;0.90;;;4.30;99.90;;;;;;5073143;28;20465;-55
2020/12/12 00:06:11;;;;;;;2.00;0.80;;;4.30;99.90;;;;;;5072284;28;20505;-56
2020/12/12 00:08:37;;;;;;;1.35;0.90;;;4.40;99.90;;;;;;5070704;28;20497;-55
2020/12/12 00:11:05;;;;;;;1.98;0.90;;;4.40;99.90;;;;;;5070078;28;20760;-56
2020/12/12 00:13:31;;;;;;;1.98;0.80;;;4.40;99.90;;;;;;5070996;28;20449;-55
2020/12/12 00:15:58;;;;;;;1.60;0.80;;;4.40;99.90;;;;;;5071388;28;20497;-55
2020/12/12 00:18:24;;;;;;;1.40;0.90;;;4.40;99.90;;;;;;5073008;28;20416;-58
2020/12/12 00:20:51;;;;;;;1.80;0.80;;;4.40;99.90;;;;;;5074299;28;20783;-56
2020/12/12 00:23:17;;;;;;;1.88;0.90;;;4.30;99.90;;;;;;5075648;28;20842;-56
2020/12/12 00:25:47;;;;;;;1.80;0.80;;;4.40;99.90;;;;;;5074856;28;20481;-57
2020/12/12 00:28:15;;;;;;;1.60;0.80;;;4.40;99.90;;;;;;5074734;28;20802;-54
2020/12/12 00:30:41;;;;;;;1.20;0.70;;;4.40;99.90;;;;;;5075126;28;20435;-55
2020/12/12 00:33:08;;;;;;;2.30;0.80;;;4.50;99.90;;;;;;5075762;28;20472;-56
2020/12/12 00:35:34;;;;;;;1.80;0.90;;;4.50;99.90;;;;;;5074648;28;20555;-54
2020/12/12 00:38:01;;;;;;;1.52;0.80;;;4.50;99.90;;;;;;5075092;28;20419;-54
2020/12/12 00:40:28;;;;;;;1.20;0.80;;;4.50;99.90;;;;;;5075764;28;20493;-54
2020/12/12 00:42:54;;;;;;;2.10;0.80;;;4.50;99.90;;;;;;5074789;28;20416;-55
2020/12/12 00:45:21;;;;;;;1.48;0.70;;;4.50;99.90;;;;;;5075598;28;20427;-55
2020/12/12 00:47:48;;;;;;;1.60;0.80;;;4.60;99.90;;;;;;5075315;28;20416;-54
2020/12/12 00:50:15;;;;;;;1.20;0.80;;;4.60;99.90;;;;;;5075296;28;20904;-56
2020/12/12 00:52:41;;;;;;;1.58;0.80;;;4.50;99.90;;;;;;5075192;28;20811;-57
2020/12/12 00:55:08;;;;;;;1.50;0.80;;;4.50;99.90;;;;;;5075151;28;20424;-57
2020/12/12 00:57:34;;;;;;;1.20;0.70;;;4.60;99.90;;;;;;5074764;28;20823;-54
2020/12/12 01:00:01;;;;;;;1.20;0.70;;;4.50;99.90;;;;;;5074739;28;20440;-56
2020/12/12 01:02:28;;;;;;;1.75;0.70;;;4.60;99.90;;;;;;5074817;28;20477;-56
2020/12/12 01:04:54;;;;;;;1.30;0.70;;;4.60;99.90;;;;;;5073299;28;20431;-55
2020/12/12 01:07:22;;;;;;;1.52;0.80;;;4.60;99.90;;;;;;5073550;28;20503;-56
2020/12/12 01:09:49;;;;;;;1.20;0.70;;;4.60;99.90;;;;;;5072634;28;20420;-58
2020/12/12 01:12:17;;;;;;;1.50;0.80;;;4.70;99.90;;;;;;5073739;28;20416;-54
2020/12/12 01:14:44;;;;;;;1.40;0.80;;;4.70;99.90;;;;;;5073436;28;20823;-55
2020/12/12 01:17:10;;;;;;;1.00;0.70;;;4.80;99.90;;;;;;5073220;28;20412;-56
2020/12/12 01:19:38;;;;;;;1.20;0.70;;;4.80;99.90;;;;;;5073331;28;20489;-56
2020/12/12 01:22:04;;;;;;;1.33;0.70;;;4.90;99.90;;;;;;5073649;28;20420;-55
2020/12/12 01:24:31;;;;;;;1.17;0.70;;;5.00;99.90;;;;;;5073572;28;20451;-56
2020/12/12 01:26:57;;;;;;;1.20;0.70;;;4.90;99.90;;;;;;5073735;28;20819;-55
2020/12/12 01:29:24;;;;;;;1.30;0.70;;;4.90;99.90;;;;;;5074199;28;20532;-57
2020/12/12 01:31:50;;;;;;;1.73;0.80;;;4.90;99.90;;;;;;5073489;28;20416;-56
2020/12/12 01:34:17;;;;;;;1.20;0.70;;;4.90;99.90;;;;;;5074313;28;20473;-55
2020/12/12 01:36:47;;;;;;;1.10;0.70;;;4.90;99.90;;;;;;5074515;28;20423;-54
2020/12/12 01:39:13;;;;;;;1.40;0.80;;;4.80;99.90;;;;;;5074225;28;20431;-53
2020/12/12 01:41:40;;;;;;;1.45;0.70;;;4.80;99.90;;;;;;5074681;28;20489;-56
2020/12/12 01:44:07;;;;;;;1.20;0.70;;;4.80;99.90;;;;;;5074623;28;20529;-52
2020/12/12 01:46:34;;;;;;;2.05;0.70;;;4.80;99.90;;;;;;5073453;28;20470;-55
2020/12/12 01:49:00;;;;;;;1.40;0.70;;;4.90;99.90;;;;;;5072189;28;20892;-56
2020/12/12 01:51:27;;;;;;;1.08;0.60;;;4.90;99.90;;;;;;5074750;28;20481;-54
2020/12/12 01:53:57;;;;;;;1.30;0.80;;;4.90;99.90;;;;;;5074630;28;20839;-54
2020/12/12 01:56:25;;;;;;;1.00;0.60;;;4.90;99.90;;;;;;5072058;28;20507;-52
2020/12/12 01:58:52;;;;;;;1.60;0.70;;;4.90;99.90;;;;;;5072273;28;20435;-54
2020/12/12 02:01:22;;;;;;;1.10;0.70;;;4.80;99.90;;;;;;5074135;28;20426;-54
2020/12/12 02:03:50;;;;;;;1.30;0.70;;;4.80;99.90;;;;;;5073215;28;20422;-54
2020/12/12 02:06:19;;;;;;;1.70;0.70;;;4.80;99.90;;;;;;5074619;28;20427;-56
2020/12/12 02:08:46;;;;;;;1.27;0.70;;;4.80;99.90;;;;;;5073971;28;20404;-48
2020/12/12 02:11:13;;;;;;;1.57;0.80;;;4.70;99.90;;;;;;5074204;28;20564;-55
2020/12/12 02:13:47;;;;;;;1.90;0.80;;;4.70;99.90;;;;;;5073449;28;20466;-50
2020/12/12 02:16:14;;;;;;;1.40;0.80;;;4.70;99.90;;;;;;5073176;28;20431;-52
2020/12/12 02:18:41;;;;;;;1.40;0.70;;;4.60;99.90;;;;;;5073133;28;20473;-55
2020/12/12 02:21:08;;;;;;;1.50;0.70;;;4.70;99.90;;;;;;5073534;28;20430;-56
2020/12/12 02:23:36;;;;;;;2.50;0.70;;;4.80;99.90;;;;;;5073024;28;20485;-56
2020/12/12 02:26:03;;;;;;;1.30;0.70;;;4.80;99.90;;;;;;5073781;28;20462;-54
2020/12/12 02:28:35;;;;;;;2.03;0.70;;;4.90;99.90;;;;;;5073057;28;20423;-56
2020/12/12 02:31:02;;;;;;;1.20;0.60;;;4.80;99.90;;;;;;5074111;28;20769;-56
2020/12/12 02:33:29;;;;;;;1.20;0.70;;;4.80;99.90;;;;;;5073993;28;20476;-56
2020/12/12 02:35:56;;;;;;;1.50;0.80;;;4.80;99.90;;;;;;5074146;28;20428;-55
2020/12/12 02:38:23;;;;;;;1.70;0.90;;;4.80;99.90;;;;;;5074461;28;20490;-53
2020/12/12 02:40:50;;;;;;;0.97;0.60;;;4.80;99.90;;;;;;5074396;28;20952;-56
2020/12/12 02:43:18;;;;;;;1.92;0.80;;;4.80;99.90;;;;;;5074691;28;20420;-54
2020/12/12 02:45:46;;;;;;;1.17;0.70;;;4.90;99.90;;;;;;5073625;28;20435;-56
2020/12/12 02:48:12;;;;;;;1.08;0.70;;;4.80;99.90;;;;;;5073034;28;20415;-53
2020/12/12 02:50:39;;;;;;;1.30;0.77;;;4.90;99.90;;;;;;5073978;28;20424;-56
2020/12/12 02:53:06;;;;;;;1.00;0.60;;;4.90;99.90;;;;;;5074284;28;20424;-56
2020/12/12 02:55:32;;;;;;;1.40;0.77;;;4.90;99.90;;;;;;5074119;28;20431;-55
2020/12/12 02:58:00;;;;;;;1.67;0.80;;;5.00;99.90;;;;;;5074148;28;20419;-55
2020/12/12 03:00:27;;;;;;;1.10;0.70;;;4.90;99.90;;;;;;5074070;28;20573;-56
2020/12/12 03:02:54;;;;;;;2.13;0.70;;;4.80;99.90;;;;;;5074077;28;20416;-54
2020/12/12 03:05:20;;;;;;;2.10;0.70;;;4.90;99.90;;;;;;5073865;28;20567;-54
2020/12/12 03:07:47;;;;;;;1.40;0.70;;;4.90;99.90;;;;;;5074520;28;20453;-56
2020/12/12 03:10:14;;;;;;;1.02;0.60;;;4.80;99.90;;;;;;5076873;28;20423;-57
2020/12/12 03:12:41;;;;;;;1.30;0.70;;;4.80;99.90;;;;;;5077351;28;20422;-56
2020/12/12 03:15:10;;;;;;;1.00;0.65;;;4.70;99.90;;;;;;5077605;28;20500;-58
2020/12/12 03:17:37;;;;;;;1.30;0.70;;;4.70;99.90;;;;;;5075857;28;20454;-57
2020/12/12 03:20:05;;;;;;;1.00;0.60;;;4.70;99.90;;;;;;5076167;28;20492;-57
2020/12/12 03:22:32;;;;;;;1.23;0.68;;;4.80;99.90;;;;;;5076965;28;20472;-58
2020/12/12 03:24:59;;;;;;;1.00;0.60;;;4.80;99.90;;;;;;5076657;28;20427;-56
2020/12/12 03:27:25;;;;;;;1.60;0.73;;;4.70;99.90;;;;;;5078326;28;20419;-54
2020/12/12 03:29:51;;;;;;;1.50;0.70;;;4.70;99.90;;;;;;5076819;28;20419;-56
2020/12/12 03:32:19;;;;;;;1.30;0.70;;;4.70;99.90;;;;;;5077059;28;20422;-55
2020/12/12 03:34:45;;;;;;;1.52;0.80;;;4.70;99.90;;;;;;5076998;28;20463;-50
2020/12/12 03:37:12;;;;;;;1.00;0.70;;;4.70;99.90;;;;;;5077110;28;20474;-56
2020/12/12 03:39:39;;;;;;;2.90;0.80;;;4.70;99.90;;;;;;5077161;28;20432;-55
2020/12/12 03:42:06;;;;;;;2.20;0.80;;;4.70;99.90;;;;;;5076661;28;20416;-54
2020/12/12 03:44:33;;;;;;;1.50;0.80;;;4.70;99.90;;;;;;5076042;28;20469;-54
2020/12/12 03:46:59;;;;;;;1.30;0.80;;;4.80;99.90;;;;;;5076702;28;20438;-55
2020/12/12 03:49:26;;;;;;;2.00;0.70;;;4.80;99.90;;;;;;5076805;28;20469;-55
2020/12/12 03:51:53;;;;;;;1.90;0.90;;;4.90;99.90;;;;;;5076865;28;20473;-55
2020/12/12 03:54:20;;;;;;;1.80;0.80;;;4.80;99.90;;;;;;5076246;28;20629;-53
2020/12/12 03:56:46;;;;;;;1.63;0.73;;;4.80;99.90;;;;;;5076397;28;20960;-55
2020/12/12 03:59:12;;;;;;;1.70;0.80;;;4.80;99.90;;;;;;5076472;28;20467;-55
2020/12/12 04:01:39;;;;;;;1.50;0.80;;;4.90;99.90;;;;;;5076440;28;20489;-56
2020/12/12 04:04:05;;;;;;;1.30;0.80;;;4.90;99.90;;;;;;5076629;28;20416;-55
2020/12/12 04:06:34;;;;;;;1.83;0.90;;;4.90;99.90;;;;;;5076583;28;20851;-56
2020/12/12 04:09:00;;;;;;;1.48;0.70;;;4.80;99.90;;;;;;5076402;28;20412;-56
2020/12/12 04:11:27;;;;;;;1.50;0.90;;;4.80;99.90;;;;;;5076781;28;20446;-54
2020/12/12 04:13:54;;;;;;;1.40;0.80;;;4.70;99.90;;;;;;5076227;28;20457;-56
2020/12/12 04:16:20;;;;;;;1.77;0.80;;;4.80;99.90;;;;;;5076026;28;20419;-55
2020/12/12 04:18:47;;;;;;;1.15;0.80;;;4.80;99.90;;;;;;5075831;28;20439;-56
2020/12/12 04:21:13;;;;;;;1.60;0.80;;;4.80;99.90;;;;;;5076729;28;20423;-53
2020/12/12 04:23:43;;;;;;;1.48;0.80;;;4.80;99.90;;;;;;5075844;28;20473;-56
2020/12/12 04:26:11;;;;;;;2.20;0.85;;;4.90;99.90;;;;;;5076322;28;20869;-54
2020/12/12 04:28:38;;;;;;;1.63;0.80;;;4.80;99.90;;;;;;5076258;28;20424;-54
2020/12/12 04:31:05;;;;;;;1.30;0.80;;;4.80;99.90;;;;;;5075955;28;20427;-56
2020/12/12 04:33:31;;;;;;;1.60;0.80;;;4.80;99.90;;;;;;5075600;28;20782;-56
2020/12/12 04:35:57;;;;;;;1.43;0.97;;;4.80;99.90;;;;;;5075090;28;20427;-56
2020/12/12 04:38:24;;;;;;;1.58;0.80;;;4.80;99.90;;;;;;5075995;28;20415;-57
2020/12/12 04:40:53;;;;;;;2.00;0.80;;;4.80;99.90;;;;;;5076296;28;20435;-55
2020/12/12 04:43:20;;;;;;;2.20;0.90;;;4.80;99.90;;;;;;5075695;28;20416;-55
2020/12/12 04:45:48;;;;;;;1.30;0.70;;;4.70;99.90;;;;;;5075520;28;20492;-55
2020/12/12 04:48:15;;;;;;;2.60;0.80;;;4.70;99.90;;;;;;5076149;28;20416;-54
2020/12/12 04:50:42;;;;;;;1.40;0.80;;;4.80;99.90;;;;;;5076247;28;20430;-56
2020/12/12 04:53:13;;;;;;;2.00;0.88;;;4.90;99.90;;;;;;5075444;28;20423;-57
2020/12/12 04:55:44;;;;;;;1.30;0.80;;;4.90;99.90;;;;;;5075883;28;20431;-55
2020/12/12 04:58:15;;;;;;;1.60;0.80;;;4.90;99.90;;;;;;5075492;28;20416;-55
2020/12/12 05:00:45;;;;;;;2.30;0.90;;;4.90;99.90;;;;;;5075311;28;20488;-55
2020/12/12 05:03:13;;;;;;;1.50;0.97;;;4.90;99.90;;;;;;5075334;28;20421;-56
2020/12/12 05:05:40;;;;;;;1.63;0.80;;;4.80;99.90;;;;;;5074929;28;20415;-56
2020/12/12 05:08:08;;;;;;;1.50;0.80;;;4.80;99.90;;;;;;5075258;28;20454;-57
2020/12/12 05:10:39;;;;;;;1.30;0.80;;;4.90;99.90;;;;;;5074760;28;20427;-56
2020/12/12 05:13:15;;;;;;;1.83;0.80;;;4.90;99.90;;;;;;5074887;28;20422;-56
2020/12/12 05:15:42;;;;;;;2.00;0.80;;;5.00;99.90;;;;;;5075226;28;20431;-53
2020/12/12 05:18:09;;;;;;;1.30;0.70;;;5.10;99.90;;;;;;5075218;28;20412;-55
2020/12/12 05:20:36;;;;;;;1.77;0.90;;;5.20;99.90;;;;;;5075366;28;20435;-55
2020/12/12 05:23:09;;;;;;;1.30;0.90;;;5.10;99.90;;;;;;5075373;28;20420;-52
2020/12/12 05:25:37;;;;;;;1.40;0.90;;;5.10;99.90;;;;;;5074933;28;20427;-53
2020/12/12 05:28:04;;;;;;;1.60;0.80;;;5.10;99.90;;;;;;5074975;28;20439;-56
2020/12/12 05:30:34;;;;;;;1.90;0.90;;;5.20;99.90;;;;;;5074080;28;20547;-55
2020/12/12 05:33:01;;;;;;;1.70;0.80;;;5.20;99.90;;;;;;5075097;28;20426;-56
2020/12/12 05:35:28;;;;;;;1.30;0.80;;;5.20;99.90;;;;;;5074605;28;20481;-55
2020/12/12 05:37:54;;;;;;;1.48;0.90;;;5.10;99.90;;;;;;5074856;28;20450;-56
2020/12/12 05:40:21;;;;;;;2.70;0.70;;;5.10;99.90;;;;;;5074711;28;20783;-56
2020/12/12 05:42:48;;;;;;;1.45;0.70;;;5.10;99.90;;;;;;5074340;28;20477;-56
2020/12/12 05:45:16;;;;;;;1.50;0.80;;;5.10;99.90;;;;;;5074880;28;20458;-55
2020/12/12 05:47:43;;;;;;;1.92;0.80;;;5.30;99.90;;;;;;5074366;28;20774;-56
2020/12/12 05:50:11;;;;;;;1.80;0.80;;;5.30;99.90;;;;;;5074356;28;20427;-52
2020/12/12 05:52:40;;;;;;;1.50;0.80;;;5.30;99.90;;;;;;5074634;28;20424;-55
2020/12/12 05:55:07;;;;;;;1.20;0.70;;;5.20;99.90;;;;;;5074405;28;20423;-55
2020/12/12 05:57:33;;;;;;;1.70;0.70;;;5.20;99.90;;;;;;5074847;28;20477;-55
2020/12/12 06:00:04;;;;;;;1.45;0.80;;;5.20;99.90;;;;;;5074447;28;20825;-55
2020/12/12 06:02:35;;;;;;;1.30;0.80;;;5.10;99.90;;;;;;5074269;28;21020;-56
2020/12/12 06:05:05;;;;;;;1.10;0.70;;;5.10;99.90;;;;;;5074353;28;20769;-56
2020/12/12 06:07:33;;;;;;;1.30;0.70;;;5.10;99.90;;;;;;5074720;28;20416;-54
2020/12/12 06:10:01;;;;;;;1.77;0.80;;;5.10;99.90;;;;;;5074102;28;20473;-56
2020/12/12 06:12:29;;;;;;;1.20;0.80;;;5.10;99.90;;;;;;5074933;28;20481;-56
2020/12/12 06:14:57;;;;;;;1.20;0.70;;;5.20;99.90;;;;;;5074495;28;20484;-56
2020/12/12 06:17:46;;;;;;;1.23;0.73;;;5.20;99.90;;;;;;5074624;28;20420;-55
2020/12/12 06:20:14;;;;;;;1.50;0.90;;;5.20;99.90;;;;;;5074176;28;20469;-55
2020/12/12 06:22:43;;;;;;;1.40;0.80;;;5.20;99.90;;;;;;5074265;28;20518;-55
2020/12/12 06:25:14;;;;;;;1.30;0.70;;;5.20;99.90;;;;;;5074299;28;21047;-54
2020/12/12 06:27:48;;;;;;;1.38;0.70;;;5.20;99.90;;;;;;5074587;28;20473;-53
2020/12/12 06:30:28;;;;;;;1.10;0.60;;;5.30;99.90;;;;;;5073883;28;20716;-56
2020/12/12 06:33:01;;;;;;;1.52;0.75;;;5.20;99.90;;;;;;5073745;28;20412;-56
2020/12/12 06:35:32;;;;;;;1.40;0.80;;;5.20;99.90;;;;;;5073012;28;20427;-55
2020/12/12 06:38:20;;;;;;;1.20;0.70;;;5.20;99.90;;;;;;5073323;28;20420;-57
2020/12/12 06:40:48;;;;;;;1.57;0.80;;;5.20;99.90;;;;;;5074131;28;20541;-57
2020/12/12 06:43:31;;;;;;;1.50;0.70;;;5.20;99.90;;;;;;5077084;28;20516;-57
2020/12/12 06:45:59;;;;;;;1.58;0.80;;;5.20;99.90;;;;;;5075869;28;20427;-57
2020/12/12 06:48:28;;;;;;;1.20;0.70;;;5.10;99.90;;;;;;5077715;28;20449;-58
2020/12/12 06:50:56;;;;;;;1.20;0.70;;;5.10;99.90;;;;;;5077347;28;20419;-57
2020/12/12 06:53:24;;;;;;;1.30;0.70;;;5.10;99.90;;;;;;5075980;28;20912;-53
2020/12/12 06:56:10;;;;;;;1.80;0.80;;;5.10;99.90;;;;;;5077292;28;20817;-58
2020/12/12 06:58:38;;;;;;;1.27;0.80;;;5.20;99.90;;;;;;5077065;28;20423;-58
2020/12/12 07:01:27;;;;;;;1.38;0.70;;;5.10;99.90;;;;;;5077161;28;20435;-58
2020/12/12 07:03:58;;;;;;;1.00;0.68;;;5.10;99.90;;;;;;5077095;28;20926;-58
2020/12/12 07:06:26;;;;;;;1.33;0.70;;;5.20;99.90;;;;;;5077728;28;20428;-58
2020/12/12 07:08:57;;;;;;;1.20;0.70;;;5.20;99.90;;;;;;5077191;28;20419;-57
2020/12/12 07:11:25;;;;;;;1.40;0.80;;;5.20;99.90;;;;;;5076630;28;20420;-58
2020/12/12 07:13:53;;;;;;;1.10;0.70;;;5.20;99.90;;;;;;5077173;28;20415;-56
2020/12/12 07:16:20;;;;;;;1.40;0.70;;;5.20;99.90;;;;;;5076384;28;20460;-58
2020/12/12 07:18:49;;;;;;;1.40;0.70;;;5.10;99.90;;;;;;5076133;28;20797;-57
2020/12/12 07:21:16;;;;;;;1.77;0.70;;;5.10;99.90;;;;;;5076209;28;20427;-58
2020/12/12 07:23:43;;;;;;;1.20;0.70;;;5.20;99.90;;;;;;5077278;28;20965;-58
2020/12/12 07:26:10;;;;;;;2.13;0.70;;;5.10;99.90;;;;;;5076816;28;20453;-58
2020/12/12 07:28:40;;;;;;;2.00;0.70;;;5.20;99.90;;;;;;5076649;28;20520;-58
2020/12/12 07:31:06;;;;;;;1.40;0.70;;;5.20;99.90;;;;;;5077106;28;20535;-58
2020/12/12 07:33:33;;;;;;;1.97;0.80;;;5.20;99.90;;;;;;5075989;28;20415;-57
2020/12/12 07:36:00;;;;;;;1.60;0.90;;;5.20;99.90;;;;;;5076071;28;20778;-58
2020/12/12 07:38:28;;;;;;;15.68;8.95;;;5.30;99.90;;;;;;5076614;28;20419;-58
2020/12/12 07:40:55;;;;;;;1.10;0.70;;;5.40;99.90;;;;;;5076439;28;20427;-58
2020/12/12 07:43:22;;;;;;;1.20;0.70;;;5.40;99.90;;;;;;5076023;28;20420;-57
2020/12/12 07:46:02;;;;;;;1.80;0.70;;;5.40;99.90;;;;;;5076341;28;20841;-57
2020/12/12 07:48:28;;;;;;;1.70;0.80;;;5.40;99.90;;;;;;5075829;28;20420;-57
2020/12/12 07:50:55;;;;;;;1.00;0.50;;;5.40;99.90;;;;;;5076580;28;20419;-58
2020/12/12 07:53:22;;;;;;;1.20;0.70;;;5.50;99.90;;;;;;5074452;28;20485;-57
2020/12/12 07:55:58;;;;;;;2.45;0.70;;;5.40;99.90;;;;;;5074969;28;20427;-58
2020/12/12 07:58:27;;;;;;;2.00;0.70;;;5.30;99.90;;;;;;5074584;28;20420;-57
2020/12/12 08:00:58;;;;;;;1.10;0.70;;;5.40;99.90;;;;;;5075095;28;20470;-58
2020/12/12 08:03:24;;;;;;;1.45;0.70;;;5.30;99.90;;;;;;5073700;28;20455;-58
2020/12/12 08:06:02;;;;;;;1.50;0.70;;;5.30;99.90;;;;;;5075306;28;20473;-58
2020/12/12 08:08:28;;;;;;;1.40;0.70;;;5.40;99.90;;;;;;5075363;28;20553;-57
2020/12/12 08:10:59;;;;;;;1.80;0.75;;;5.40;99.90;;;;;;5075814;28;20453;-54
2020/12/12 08:13:27;;;;;;;1.30;0.80;;;5.40;99.90;;;;;;5074595;28;20510;-53
2020/12/12 08:16:01;;;;;;;1.30;0.70;;;5.40;99.90;;;;;;5074150;28;20423;-52
2020/12/12 08:18:27;;;;;;;1.20;0.70;;;5.40;99.90;;;;;;5055183;28;20421;-52
2020/12/12 08:20:54;;;;;;;1.48;0.70;;;5.40;99.90;;;;;;5058142;28;20459;-55
2020/12/12 08:23:22;;;;;;;1.20;0.70;;;5.40;99.90;;;;;;5074071;28;20579;-55
2020/12/12 08:25:48;;;;;;;1.10;0.60;;;5.40;99.90;;;;;;5077050;28;20446;-55
2020/12/12 08:28:16;;;;;;;1.55;0.80;;;5.40;99.90;;;;;;5088432;28;20483;-52
2020/12/12 08:30:43;;;;;;;1.40;0.70;;;5.40;99.90;;;;;;5090160;28;20489;-52
2020/12/12 08:33:10;;;;;;;1.80;0.60;;;5.40;99.90;;;;;;5084715;28;20841;-51
2020/12/12 08:35:37;;;;;;;1.17;0.70;;;5.40;99.90;;;;;;5076777;28;20499;-55
2020/12/12 08:38:05;;;;;;;1.17;0.70;;;5.40;99.90;;;;;;5074886;28;20423;-55
2020/12/12 08:40:33;;;;;;;1.50;0.70;;;5.40;99.90;;;;;;5083246;28;20469;-55
2020/12/12 08:43:08;;;;;;;0.98;0.65;;;5.40;99.90;;;;;;5094077;28;20426;-54
2020/12/12 08:45:37;;;;;;;1.50;0.80;;;5.40;99.90;;;;;;5076732;28;20428;-55
2020/12/12 08:48:09;;;;;;;1.15;0.70;;;5.40;99.90;;;;;;5075518;28;20485;-56
2020/12/12 08:50:46;;;;;;;1.00;0.70;;;5.40;99.90;;;;;;5087830;28;20435;-54
2020/12/12 08:53:28;;;;;;;1.10;0.60;;;5.40;99.90;;;;;;5069584;28;20439;-57
2020/12/12 08:56:03;;;;;;;1.10;0.60;;;5.50;99.90;;;;;;5070590;28;20587;-55
2020/12/12 08:58:37;;;;;;;1.30;0.80;;;5.60;99.90;;;;;;5065966;28;20772;-56
2020/12/12 09:01:12;;;;;;;1.20;0.70;;;5.60;99.90;;;;;;5073351;28;20431;-57
2020/12/12 09:03:58;;;;;;;1.20;0.60;;;5.70;99.90;;;;;;5062885;28;20491;-57
2020/12/12 09:06:26;;;;;;;1.27;0.70;;;5.60;99.90;;;;;;5069513;28;20499;-57
2020/12/12 09:09:10;;;;;;;1.10;0.70;;;5.70;99.90;;;;;;5074613;28;20425;-58
2020/12/12 09:11:37;;;;;;;1.00;0.70;;;5.70;99.90;;;;;;5094009;28;20421;-53
2020/12/12 09:14:06;;;;;;;1.17;0.63;;;5.70;99.90;;;;;;5086208;28;20865;-56
2020/12/12 09:16:33;;;;;;;1.80;0.70;;;5.70;99.90;;;;;;5074792;28;20500;-57
2020/12/12 09:19:00;;;;;;;1.67;0.70;;;5.70;99.90;;;;;;5073466;28;20485;-57
2020/12/12 09:21:29;;;;;;;1.02;0.60;;;5.80;99.90;;;;;;5075544;28;20483;-55
2020/12/12 09:23:56;;;;;;;1.50;0.80;;;5.80;99.90;;;;;;5070642;28;20790;-55
2020/12/12 09:26:22;;;;;;;1.05;0.60;;;5.80;99.90;;;;;;5072093;28;20471;-57
2020/12/12 09:28:49;;;;;;;1.00;0.60;;;5.80;99.90;;;;;;5076575;28;20517;-58
2020/12/12 09:31:20;;;;;;;1.70;0.60;;;5.80;99.90;;;;;;5072468;28;20786;-57
2020/12/12 09:33:47;;;;;;;1.30;0.70;;;5.90;99.90;;;;;;5055890;28;20444;-57
2020/12/12 09:36:14;;;;;;;1.20;0.70;;;6.00;99.90;;;;;;5067644;28;20489;-56
2020/12/12 09:38:41;;;;;;;1.00;0.60;;;6.00;99.90;;;;;;5068794;28;20925;-58
2020/12/12 09:41:07;;;;;;;1.00;0.70;;;6.00;99.90;;;;;;5071386;28;20435;-56
2020/12/12 09:43:34;;;;;;;1.05;0.60;;;6.10;99.90;;;;;;5062617;28;20435;-55
2020/12/12 09:46:01;;;;;;;1.30;0.60;;;6.10;99.90;;;;;;5070903;28;20446;-58
2020/12/12 09:48:27;;;;;;;1.20;0.60;;;6.10;99.90;;;;;;5070898;28;20847;-57
2020/12/12 09:50:54;;;;;;;1.60;0.60;;;6.10;99.90;;;;;;5066428;28;20501;-58
2020/12/12 09:53:21;;;;;;;1.40;0.70;;;6.20;99.90;;;;;;5064509;28;20443;-58
2020/12/12 09:55:48;;;;;;;1.00;0.63;;;6.20;99.90;;;;;;5066461;28;20862;-59
2020/12/12 09:58:15;;;;;;;1.10;0.70;;;6.20;99.90;;;;;;5066708;28;20841;-59
2020/12/12 10:00:42;;;;;;;1.00;0.60;;;6.30;99.90;;;;;;5067399;28;20447;-57
2020/12/12 10:03:09;;;;;;;1.00;0.50;;;6.20;99.90;;;;;;5071360;28;20424;-59
2020/12/12 10:05:36;;;;;;;1.10;0.70;;;6.20;99.90;;;;;;5071010;28;20853;-57
2020/12/12 10:08:05;;;;;;;1.50;0.50;;;6.30;99.90;;;;;;5074388;28;20455;-59
2020/12/12 10:10:32;;;;;;;1.00;0.60;;;6.30;99.90;;;;;;5070517;28;20784;-59
2020/12/12 10:13:00;;;;;;;1.30;0.70;;;6.40;99.90;;;;;;5067497;28;20885;-58
2020/12/12 10:15:26;;;;;;;4.13;2.30;;;6.40;99.90;;;;;;5064081;28;20439;-59
2020/12/12 10:17:53;;;;;;;2.80;1.50;;;6.50;99.90;;;;;;5077704;28;20515;-58
2020/12/12 10:20:20;;;;;;;0.90;0.70;;;6.60;99.90;;;;;;5076458;28;20745;-60
2020/12/12 10:22:46;;;;;;;1.25;0.60;;;6.60;99.90;;;;;;5074620;28;20492;-59
2020/12/12 10:25:14;;;;;;;1.10;0.60;;;6.70;99.90;;;;;;5074944;28;20439;-59
2020/12/12 10:27:41;;;;;;;1.17;0.60;;;6.80;99.90;;;;;;5071908;28;20444;-58
2020/12/12 10:30:10;;;;;;;1.60;0.60;;;6.80;99.90;;;;;;5072521;28;20477;-58
2020/12/12 10:32:37;;;;;;;1.20;0.60;;;6.90;99.90;;;;;;5073707;28;20516;-60
2020/12/12 10:35:04;;;;;;;0.90;0.50;;;6.90;99.90;;;;;;5074056;28;20523;-57
2020/12/12 10:37:31;;;;;;;0.90;0.50;;;6.90;99.90;;;;;;5071786;28;20427;-58
2020/12/12 10:40:04;;;;;;;0.90;0.50;;;7.00;99.90;;;;;;5081291;28;20430;-59
2020/12/12 10:42:32;;;;;;;0.80;0.40;;;7.00;99.90;;;;;;5075867;28;20435;-59
2020/12/12 10:44:59;;;;;;;0.70;0.40;;;7.10;99.90;;;;;;5076814;28;20485;-59
2020/12/12 10:47:25;;;;;;;1.00;0.40;;;7.20;99.90;;;;;;5070195;28;20427;-59
2020/12/12 10:49:52;;;;;;;0.67;0.40;;;7.30;99.90;;;;;;5072928;28;20568;-51
2020/12/12 10:52:19;;;;;;;0.90;0.50;;;7.30;99.90;;;;;;5070772;28;20429;-57
2020/12/12 10:54:48;;;;;;;0.70;0.40;;;7.30;99.90;;;;;;5073406;28;20446;-57
2020/12/12 10:57:14;;;;;;;1.10;0.40;;;7.30;99.90;;;;;;5077076;28;20518;-57
2020/12/12 10:59:42;;;;;;;1.10;0.43;;;7.30;99.90;;;;;;5070810;28;20497;-55
2020/12/12 11:02:11;;;;;;;1.02;0.47;;;7.30;99.90;;;;;;5077966;28;20517;-58
2020/12/12 11:04:38;;;;;;;1.00;0.50;;;7.30;99.90;;;;;;5071597;28;20423;-58
2020/12/12 11:07:04;;;;;;;1.10;0.40;;;7.30;99.90;;;;;;5077682;28;20419;-55
2020/12/12 11:09:34;;;;;;;0.70;0.40;;;7.30;99.90;;;;;;5078742;28;20423;-58
2020/12/12 11:12:02;;;;;;;0.90;0.40;;;7.20;99.90;;;;;;5078688;28;20424;-58
2020/12/12 11:14:31;;;;;;;1.40;0.40;;;7.20;99.90;;;;;;5069736;28;20444;-58
2020/12/12 11:16:59;;;;;;;0.60;0.40;;;7.20;99.90;;;;;;5071310;28;20855;-59
2020/12/12 11:19:26;;;;;;;0.85;0.50;;;7.20;99.90;;;;;;5068749;28;20447;-59
2020/12/12 11:21:54;;;;;;;0.75;0.40;;;7.30;99.90;;;;;;5076168;28;20432;-59
2020/12/12 11:24:21;;;;;;;0.80;0.40;;;7.30;99.90;;;;;;5068954;28;20445;-57
2020/12/12 11:26:48;;;;;;;2.30;0.50;;;7.30;99.90;;;;;;5064799;28;21263;-59
2020/12/12 11:29:15;;;;;;;1.02;0.50;;;7.40;99.90;;;;;;5067472;28;20445;-58
2020/12/12 11:31:44;;;;;;;3.60;2.60;;;7.40;99.90;;;;;;5071576;28;20504;-56
2020/12/12 11:34:17;;;;;;;0.60;0.40;;;7.40;99.90;;;;;;5073756;28;20808;-58
2020/12/12 11:36:56;;;;;;;1.00;0.40;;;7.50;99.90;;;;;;5071264;28;20449;-57
2020/12/12 11:39:27;;;;;;;1.90;1.80;;;7.50;99.90;;;;;;5073355;28;20431;-54
2020/12/12 11:42:12;;;;;;;0.90;0.50;;;7.50;99.90;;;;;;5073802;28;20901;-58
2020/12/12 11:47:26;;;;;;;0.77;0.40;;;7.50;99.90;;;;;;5060470;28;20726;-55
2020/12/12 11:49:54;;;;;;;1.63;0.50;;;7.50;99.90;;;;;;5075581;28;20431;-57
2020/12/12 11:52:21;;;;;;;0.70;0.40;;;7.60;99.90;;;;;;5067721;28;20445;-57
2020/12/12 11:54:48;;;;;;;0.80;0.50;;;7.60;99.90;;;;;;5073007;28;20438;-58
2020/12/12 11:57:14;;;;;;;0.82;0.47;;;7.60;99.90;;;;;;5072269;28;20801;-58
2020/12/12 11:59:43;;;;;;;0.80;0.40;;;7.60;99.90;;;;;;5081994;28;20871;-55
2020/12/12 12:02:09;;;;;;;0.70;0.40;;;7.60;99.90;;;;;;5073824;28;20435;-57
2020/12/12 12:04:36;;;;;;;0.88;0.50;;;7.60;99.90;;;;;;5074484;28;20806;-57
2020/12/12 12:07:06;;;;;;;2.55;0.80;;;7.60;99.90;;;;;;5093977;28;20406;-56
2020/12/12 12:09:36;;;;;;;0.70;0.40;;;7.70;99.90;;;;;;5080792;28;20439;-54
2020/12/12 12:12:03;;;;;;;0.80;0.40;;;7.80;99.90;;;;;;5064791;28;20506;-57
2020/12/12 12:14:30;;;;;;;0.70;0.40;;;7.80;99.90;;;;;;5075295;28;20427;-58
2020/12/12 12:16:56;;;;;;;0.70;0.40;;;7.90;99.90;;;;;;5071404;28;20437;-56
2020/12/12 12:19:23;;;;;;;0.70;0.40;;;7.90;99.90;;;;;;5073592;28;20486;-56
2020/12/12 12:21:51;;;;;;;0.90;0.40;;;7.90;99.90;;;;;;5074627;28;20432;-59
2020/12/12 12:24:20;;;;;;;0.88;0.40;;;7.90;99.90;;;;;;5075236;28;20435;-57
2020/12/12 12:26:48;;;;;;;1.20;0.50;;;7.80;99.90;;;;;;5073617;28;20443;-58
2020/12/12 12:29:17;;;;;;;1.25;0.40;;;7.90;99.90;;;;;;5073978;28;20450;-57
2020/12/12 12:31:44;;;;;;;0.70;0.40;;;7.90;99.90;;;;;;5070742;28;20763;-59
2020/12/12 12:34:11;;;;;;;0.70;0.50;;;7.80;99.90;;;;;;5072779;28;20683;-58
2020/12/12 12:36:40;;;;;;;0.90;0.50;;;7.80;99.90;;;;;;5069393;28;20526;-57
2020/12/12 12:39:08;;;;;;;0.80;0.50;;;7.90;99.90;;;;;;5083436;28;20434;-59
2020/12/12 12:41:36;;;;;;;0.90;0.60;;;7.90;99.90;;;;;;5093444;28;20433;-58
2020/12/12 12:44:05;;;;;;;1.50;0.82;;;7.90;99.90;;;;;;5076909;28;20505;-58
2020/12/12 12:46:35;;;;;;;1.35;0.85;;;7.90;99.90;;;;;;5054469;28;20433;-57
2020/12/12 12:49:02;;;;;;;0.80;0.50;;;7.70;99.90;;;;;;5061652;28;20740;-58
2020/12/12 12:51:29;;;;;;;1.02;0.50;;;7.70;99.90;;;;;;5062255;28;20441;-58
2020/12/12 12:53:56;;;;;;;0.90;0.50;;;7.60;99.90;;;;;;5069252;28;20825;-58
2020/12/12 12:56:23;;;;;;;0.88;0.50;;;7.70;99.90;;;;;;5054387;28;20441;-59
2020/12/12 12:58:51;;;;;;;1.33;0.55;;;7.70;99.90;;;;;;5069965;28;20423;-58
2020/12/12 13:01:19;;;;;;;0.80;0.50;;;7.70;99.90;;;;;;5071506;28;20485;-58
2020/12/12 13:03:45;;;;;;;1.10;0.60;;;7.70;99.90;;;;;;5067321;28;20846;-58
2020/12/12 13:06:18;;;;;;;1.20;0.60;;;7.80;99.90;;;;;;5070082;28;20484;-58